sensor_id;sensor_type;location;lat;lon;timestamp;P1;durP1;ratioP1;P2;durP2;ratioP2
85190;SDS011;75560;0.000;0.000;2024-01-27T00:01:22;3.53;;;1.17;;
85190;SDS011;75560;0.000;0.000;2024-01-27T00:03:47;2.08;;;1.00;;
85190;SDS011;75560;0.000;0.000;2024-01-27T00:06:13;2.10;;;0.85;;
85190;SDS011;75560;0.000;0.000;2024-01-27T00:08:38;2.83;;;0.95;;
85190;SDS011;75560;0.000;0.000;2024-01-27T00:11:04;2.33;;;1.10;;
85190;SDS011;75560;0.000;0.000;2024-01-27T00:13:30;2.70;;;0.90;;
85190;SDS011;75560;0.000;0.000;2024-01-27T00:15:55;2.28;;;0.90;;
85190;SDS011;75560;0.000;0.000;2024-01-27T00:18:21;1.58;;;0.90;;
85190;SDS011;75560;0.000;0.000;2024-01-27T00:20:46;2.63;;;0.80;;
85190;SDS011;75560;0.000;0.000;2024-01-27T00:23:12;1.98;;;0.80;;
85190;SDS011;75560;0.000;0.000;2024-01-27T00:25:38;2.63;;;1.02;;
85190;SDS011;75560;0.000;0.000;2024-01-27T00:28:03;2.00;;;0.88;;
85190;SDS011;75560;0.000;0.000;2024-01-27T00:30:29;2.78;;;0.95;;
85190;SDS011;75560;0.000;0.000;2024-01-27T00:32:54;2.05;;;0.90;;
85190;SDS011;75560;0.000;0.000;2024-01-27T00:35:20;2.25;;;0.90;;
85190;SDS011;75560;0.000;0.000;2024-01-27T00:37:46;2.05;;;0.90;;
85190;SDS011;75560;0.000;0.000;2024-01-27T00:40:11;3.78;;;1.00;;
85190;SDS011;75560;0.000;0.000;2024-01-27T00:42:37;3.22;;;0.98;;
85190;SDS011;75560;0.000;0.000;2024-01-27T00:45:06;2.67;;;1.02;;
85190;SDS011;75560;0.000;0.000;2024-01-27T00:47:32;2.80;;;1.00;;
85190;SDS011;75560;0.000;0.000;2024-01-27T00:49:57;3.47;;;1.08;;
85190;SDS011;75560;0.000;0.000;2024-01-27T00:52:23;2.03;;;0.90;;
85190;SDS011;75560;0.000;0.000;2024-01-27T00:54:49;2.72;;;1.02;;
85190;SDS011;75560;0.000;0.000;2024-01-27T00:57:14;2.53;;;0.90;;
85190;SDS011;75560;0.000;0.000;2024-01-27T00:59:40;3.38;;;1.00;;
85190;SDS011;75560;0.000;0.000;2024-01-27T01:02:06;2.00;;;0.90;;
85190;SDS011;75560;0.000;0.000;2024-01-27T01:04:32;1.83;;;0.90;;
85190;SDS011;75560;0.000;0.000;2024-01-27T01:06:57;2.00;;;1.00;;
85190;SDS011;75560;0.000;0.000;2024-01-27T01:09:23;3.00;;;1.15;;
85190;SDS011;75560;0.000;0.000;2024-01-27T01:11:49;2.55;;;1.00;;
85190;SDS011;75560;0.000;0.000;2024-01-27T01:14:14;2.45;;;0.93;;
85190;SDS011;75560;0.000;0.000;2024-01-27T01:16:40;2.92;;;1.20;;
85190;SDS011;75560;0.000;0.000;2024-01-27T01:19:05;2.10;;;1.00;;
85190;SDS011;75560;0.000;0.000;2024-01-27T01:21:31;2.13;;;0.85;;
85190;SDS011;75560;0.000;0.000;2024-01-27T01:23:57;1.75;;;0.90;;
85190;SDS011;75560;0.000;0.000;2024-01-27T01:26:22;2.05;;;0.90;;
85190;SDS011;75560;0.000;0.000;2024-01-27T01:28:49;1.75;;;0.93;;
85190;SDS011;75560;0.000;0.000;2024-01-27T01:31:15;3.15;;;0.90;;
85190;SDS011;75560;0.000;0.000;2024-01-27T01:33:41;1.73;;;1.00;;
85190;SDS011;75560;0.000;0.000;2024-01-27T01:36:07;3.72;;;1.05;;
85190;SDS011;75560;0.000;0.000;2024-01-27T01:38:33;2.00;;;0.80;;
85190;SDS011;75560;0.000;0.000;2024-01-27T01:40:58;2.42;;;1.30;;
85190;SDS011;75560;0.000;0.000;2024-01-27T01:43:24;1.60;;;1.00;;
85190;SDS011;75560;0.000;0.000;2024-01-27T01:45:49;2.25;;;1.02;;
85190;SDS011;75560;0.000;0.000;2024-01-27T01:48:18;1.63;;;1.00;;
85190;SDS011;75560;0.000;0.000;2024-01-27T01:50:47;1.73;;;0.88;;
85190;SDS011;75560;0.000;0.000;2024-01-27T01:53:14;1.95;;;1.00;;
85190;SDS011;75560;0.000;0.000;2024-01-27T01:55:40;2.55;;;0.98;;
85190;SDS011;75560;0.000;0.000;2024-01-27T01:58:05;2.00;;;1.00;;
85190;SDS011;75560;0.000;0.000;2024-01-27T02:00:31;2.85;;;0.90;;
85190;SDS011;75560;0.000;0.000;2024-01-27T02:02:57;2.17;;;1.00;;
85190;SDS011;75560;0.000;0.000;2024-01-27T02:05:23;2.53;;;1.00;;
85190;SDS011;75560;0.000;0.000;2024-01-27T02:07:48;3.55;;;1.10;;
85190;SDS011;75560;0.000;0.000;2024-01-27T02:10:16;3.83;;;1.00;;
85190;SDS011;75560;0.000;0.000;2024-01-27T02:12:43;1.95;;;0.90;;
85190;SDS011;75560;0.000;0.000;2024-01-27T02:15:12;3.63;;;1.05;;
85190;SDS011;75560;0.000;0.000;2024-01-27T02:17:39;1.80;;;0.93;;
85190;SDS011;75560;0.000;0.000;2024-01-27T02:20:05;1.45;;;0.90;;
85190;SDS011;75560;0.000;0.000;2024-01-27T02:22:32;2.03;;;0.90;;
85190;SDS011;75560;0.000;0.000;2024-01-27T02:24:58;2.97;;;1.00;;
85190;SDS011;75560;0.000;0.000;2024-01-27T02:27:24;1.98;;;0.90;;
85190;SDS011;75560;0.000;0.000;2024-01-27T02:29:49;1.58;;;0.90;;
85190;SDS011;75560;0.000;0.000;2024-01-27T02:32:15;2.38;;;1.00;;
85190;SDS011;75560;0.000;0.000;2024-01-27T02:34:41;1.98;;;0.90;;
85190;SDS011;75560;0.000;0.000;2024-01-27T02:37:06;2.35;;;1.00;;
85190;SDS011;75560;0.000;0.000;2024-01-27T02:39:32;1.73;;;0.85;;
85190;SDS011;75560;0.000;0.000;2024-01-27T02:41:57;3.13;;;0.98;;
85190;SDS011;75560;0.000;0.000;2024-01-27T02:44:23;1.90;;;1.00;;
85190;SDS011;75560;0.000;0.000;2024-01-27T02:46:48;2.45;;;1.05;;
85190;SDS011;75560;0.000;0.000;2024-01-27T02:49:14;2.47;;;0.93;;
85190;SDS011;75560;0.000;0.000;2024-01-27T02:51:39;1.92;;;1.00;;
85190;SDS011;75560;0.000;0.000;2024-01-27T02:54:05;2.13;;;1.20;;
85190;SDS011;75560;0.000;0.000;2024-01-27T02:56:31;1.70;;;0.90;;
85190;SDS011;75560;0.000;0.000;2024-01-27T02:58:56;1.55;;;0.88;;
85190;SDS011;75560;0.000;0.000;2024-01-27T03:01:22;2.05;;;0.98;;
85190;SDS011;75560;0.000;0.000;2024-01-27T03:03:47;2.20;;;0.90;;
85190;SDS011;75560;0.000;0.000;2024-01-27T03:06:13;1.10;;;0.85;;
85190;SDS011;75560;0.000;0.000;2024-01-27T03:08:38;1.85;;;1.00;;
85190;SDS011;75560;0.000;0.000;2024-01-27T03:11:04;2.50;;;1.00;;
85190;SDS011;75560;0.000;0.000;2024-01-27T03:13:29;1.85;;;1.23;;
85190;SDS011;75560;0.000;0.000;2024-01-27T03:15:55;1.63;;;0.90;;
85190;SDS011;75560;0.000;0.000;2024-01-27T03:18:21;2.00;;;0.90;;
85190;SDS011;75560;0.000;0.000;2024-01-27T03:20:46;1.83;;;1.10;;
85190;SDS011;75560;0.000;0.000;2024-01-27T03:23:12;1.75;;;0.90;;
85190;SDS011;75560;0.000;0.000;2024-01-27T03:25:38;1.63;;;0.90;;
85190;SDS011;75560;0.000;0.000;2024-01-27T03:28:04;2.47;;;0.88;;
85190;SDS011;75560;0.000;0.000;2024-01-27T03:30:30;1.92;;;0.93;;
85190;SDS011;75560;0.000;0.000;2024-01-27T03:32:55;2.72;;;0.98;;
85190;SDS011;75560;0.000;0.000;2024-01-27T03:35:21;2.22;;;0.95;;
85190;SDS011;75560;0.000;0.000;2024-01-27T03:37:46;1.80;;;0.95;;
85190;SDS011;75560;0.000;0.000;2024-01-27T03:40:12;2.72;;;0.90;;
85190;SDS011;75560;0.000;0.000;2024-01-27T03:42:38;1.48;;;0.90;;
85190;SDS011;75560;0.000;0.000;2024-01-27T03:45:03;3.42;;;1.00;;
85190;SDS011;75560;0.000;0.000;2024-01-27T03:47:29;2.80;;;1.10;;
85190;SDS011;75560;0.000;0.000;2024-01-27T03:49:55;2.92;;;1.05;;
85190;SDS011;75560;0.000;0.000;2024-01-27T03:52:20;2.20;;;1.10;;
85190;SDS011;75560;0.000;0.000;2024-01-27T03:54:46;2.05;;;1.05;;
85190;SDS011;75560;0.000;0.000;2024-01-27T03:57:11;2.67;;;1.08;;
85190;SDS011;75560;0.000;0.000;2024-01-27T03:59:39;2.80;;;0.90;;
85190;SDS011;75560;0.000;0.000;2024-01-27T04:02:06;1.48;;;1.00;;
85190;SDS011;75560;0.000;0.000;2024-01-27T04:04:32;1.70;;;0.82;;
85190;SDS011;75560;0.000;0.000;2024-01-27T04:06:57;3.08;;;1.20;;
85190;SDS011;75560;0.000;0.000;2024-01-27T04:09:23;2.13;;;1.00;;
85190;SDS011;75560;0.000;0.000;2024-01-27T04:11:49;1.75;;;0.98;;
85190;SDS011;75560;0.000;0.000;2024-01-27T04:14:14;1.50;;;0.80;;
85190;SDS011;75560;0.000;0.000;2024-01-27T04:16:40;2.65;;;1.00;;
85190;SDS011;75560;0.000;0.000;2024-01-27T04:19:05;1.88;;;0.95;;
85190;SDS011;75560;0.000;0.000;2024-01-27T04:21:31;3.13;;;1.27;;
85190;SDS011;75560;0.000;0.000;2024-01-27T04:23:56;1.80;;;1.00;;
85190;SDS011;75560;0.000;0.000;2024-01-27T04:26:22;2.88;;;1.10;;
85190;SDS011;75560;0.000;0.000;2024-01-27T04:28:47;1.55;;;0.90;;
85190;SDS011;75560;0.000;0.000;2024-01-27T04:31:13;1.98;;;0.95;;
85190;SDS011;75560;0.000;0.000;2024-01-27T04:33:39;1.70;;;1.10;;
85190;SDS011;75560;0.000;0.000;2024-01-27T04:36:04;2.03;;;1.00;;
85190;SDS011;75560;0.000;0.000;2024-01-27T04:38:31;1.90;;;0.90;;
85190;SDS011;75560;0.000;0.000;2024-01-27T04:40:57;2.78;;;0.90;;
85190;SDS011;75560;0.000;0.000;2024-01-27T04:43:23;1.80;;;1.10;;
85190;SDS011;75560;0.000;0.000;2024-01-27T04:45:48;2.47;;;0.90;;
85190;SDS011;75560;0.000;0.000;2024-01-27T04:48:14;1.92;;;0.90;;
85190;SDS011;75560;0.000;0.000;2024-01-27T04:50:40;2.03;;;1.17;;
85190;SDS011;75560;0.000;0.000;2024-01-27T04:53:06;1.70;;;1.08;;
85190;SDS011;75560;0.000;0.000;2024-01-27T04:55:31;1.73;;;1.05;;
85190;SDS011;75560;0.000;0.000;2024-01-27T04:57:57;2.30;;;1.08;;
85190;SDS011;75560;0.000;0.000;2024-01-27T05:00:25;3.40;;;1.20;;
85190;SDS011;75560;0.000;0.000;2024-01-27T05:02:54;2.25;;;0.80;;
85190;SDS011;75560;0.000;0.000;2024-01-27T05:05:20;1.73;;;1.15;;
85190;SDS011;75560;0.000;0.000;2024-01-27T05:07:45;2.13;;;0.98;;
85190;SDS011;75560;0.000;0.000;2024-01-27T05:10:12;1.58;;;0.82;;
85190;SDS011;75560;0.000;0.000;2024-01-27T05:12:40;1.40;;;0.90;;
85190;SDS011;75560;0.000;0.000;2024-01-27T05:15:05;2.80;;;1.10;;
85190;SDS011;75560;0.000;0.000;2024-01-27T05:17:31;1.98;;;0.93;;
85190;SDS011;75560;0.000;0.000;2024-01-27T05:19:57;2.17;;;1.05;;
85190;SDS011;75560;0.000;0.000;2024-01-27T05:22:23;1.95;;;0.90;;
85190;SDS011;75560;0.000;0.000;2024-01-27T05:24:49;2.42;;;1.42;;
85190;SDS011;75560;0.000;0.000;2024-01-27T05:27:15;2.65;;;0.82;;
85190;SDS011;75560;0.000;0.000;2024-01-27T05:29:41;2.55;;;1.00;;
85190;SDS011;75560;0.000;0.000;2024-01-27T05:32:06;1.73;;;1.00;;
85190;SDS011;75560;0.000;0.000;2024-01-27T05:34:32;2.03;;;0.90;;
85190;SDS011;75560;0.000;0.000;2024-01-27T05:36:58;1.75;;;1.00;;
85190;SDS011;75560;0.000;0.000;2024-01-27T05:39:23;2.90;;;1.00;;
85190;SDS011;75560;0.000;0.000;2024-01-27T05:41:49;1.40;;;0.90;;
85190;SDS011;75560;0.000;0.000;2024-01-27T05:44:14;2.00;;;1.10;;
85190;SDS011;75560;0.000;0.000;2024-01-27T05:46:40;2.33;;;0.93;;
85190;SDS011;75560;0.000;0.000;2024-01-27T05:49:05;2.42;;;1.00;;
85190;SDS011;75560;0.000;0.000;2024-01-27T05:51:31;1.80;;;1.00;;
85190;SDS011;75560;0.000;0.000;2024-01-27T05:53:56;3.53;;;1.15;;
85190;SDS011;75560;0.000;0.000;2024-01-27T05:56:22;2.45;;;1.00;;
85190;SDS011;75560;0.000;0.000;2024-01-27T05:58:48;2.45;;;1.23;;
85190;SDS011;75560;0.000;0.000;2024-01-27T06:01:13;1.23;;;0.90;;
85190;SDS011;75560;0.000;0.000;2024-01-27T06:03:43;3.00;;;1.02;;
85190;SDS011;75560;0.000;0.000;2024-01-27T06:06:08;2.80;;;1.10;;
85190;SDS011;75560;0.000;0.000;2024-01-27T06:08:35;1.35;;;0.90;;
85190;SDS011;75560;0.000;0.000;2024-01-27T06:11:00;1.77;;;1.00;;
85190;SDS011;75560;0.000;0.000;2024-01-27T06:13:26;2.53;;;0.93;;
85190;SDS011;75560;0.000;0.000;2024-01-27T06:15:52;2.03;;;0.90;;
85190;SDS011;75560;0.000;0.000;2024-01-27T06:18:17;2.15;;;1.00;;
85190;SDS011;75560;0.000;0.000;2024-01-27T06:20:43;3.72;;;1.10;;
85190;SDS011;75560;0.000;0.000;2024-01-27T06:23:09;1.95;;;0.90;;
85190;SDS011;75560;0.000;0.000;2024-01-27T06:25:34;2.47;;;1.00;;
85190;SDS011;75560;0.000;0.000;2024-01-27T06:28:00;1.92;;;0.90;;
85190;SDS011;75560;0.000;0.000;2024-01-27T06:30:26;2.22;;;0.85;;
85190;SDS011;75560;0.000;0.000;2024-01-27T06:32:51;1.38;;;0.90;;
85190;SDS011;75560;0.000;0.000;2024-01-27T06:35:17;1.83;;;0.90;;
85190;SDS011;75560;0.000;0.000;2024-01-27T06:37:42;2.75;;;0.95;;
85190;SDS011;75560;0.000;0.000;2024-01-27T06:40:08;2.97;;;0.95;;
85190;SDS011;75560;0.000;0.000;2024-01-27T06:42:34;2.25;;;1.17;;
85190;SDS011;75560;0.000;0.000;2024-01-27T06:45:00;2.20;;;0.90;;
85190;SDS011;75560;0.000;0.000;2024-01-27T06:47:25;2.28;;;0.90;;
85190;SDS011;75560;0.000;0.000;2024-01-27T06:49:51;1.95;;;1.10;;
85190;SDS011;75560;0.000;0.000;2024-01-27T06:52:16;1.25;;;0.90;;
85190;SDS011;75560;0.000;0.000;2024-01-27T06:54:42;1.33;;;0.88;;
85190;SDS011;75560;0.000;0.000;2024-01-27T06:57:30;2.92;;;1.00;;
85190;SDS011;75560;0.000;0.000;2024-01-27T06:59:54;1.80;;;1.00;;
85190;SDS011;75560;0.000;0.000;2024-01-27T07:02:23;2.55;;;1.27;;
85190;SDS011;75560;0.000;0.000;2024-01-27T07:04:49;3.47;;;1.00;;
85190;SDS011;75560;0.000;0.000;2024-01-27T07:07:15;6.53;;;1.13;;
85190;SDS011;75560;0.000;0.000;2024-01-27T07:09:41;6.60;;;1.20;;
85190;SDS011;75560;0.000;0.000;2024-01-27T07:12:07;7.82;;;1.13;;
85190;SDS011;75560;0.000;0.000;2024-01-27T07:14:34;8.20;;;1.30;;
85190;SDS011;75560;0.000;0.000;2024-01-27T07:17:00;8.00;;;1.50;;
85190;SDS011;75560;0.000;0.000;2024-01-27T07:19:25;5.38;;;1.20;;
85190;SDS011;75560;0.000;0.000;2024-01-27T07:21:51;9.57;;;1.42;;
85190;SDS011;75560;0.000;0.000;2024-01-27T07:24:17;6.72;;;1.52;;
85190;SDS011;75560;0.000;0.000;2024-01-27T07:26:42;8.82;;;1.65;;
85190;SDS011;75560;0.000;0.000;2024-01-27T07:29:08;9.07;;;1.60;;
85190;SDS011;75560;0.000;0.000;2024-01-27T07:31:33;7.07;;;1.40;;
85190;SDS011;75560;0.000;0.000;2024-01-27T07:33:59;6.95;;;1.52;;
85190;SDS011;75560;0.000;0.000;2024-01-27T07:36:24;7.57;;;2.03;;
85190;SDS011;75560;0.000;0.000;2024-01-27T07:38:51;5.53;;;1.85;;
85190;SDS011;75560;0.000;0.000;2024-01-27T07:41:16;9.40;;;2.22;;
85190;SDS011;75560;0.000;0.000;2024-01-27T07:43:42;7.85;;;1.88;;
85190;SDS011;75560;0.000;0.000;2024-01-27T07:46:07;9.35;;;1.80;;
85190;SDS011;75560;0.000;0.000;2024-01-27T07:48:33;10.98;;;1.70;;
85190;SDS011;75560;0.000;0.000;2024-01-27T07:50:59;10.57;;;1.77;;
85190;SDS011;75560;0.000;0.000;2024-01-27T07:53:24;4.47;;;1.48;;
85190;SDS011;75560;0.000;0.000;2024-01-27T07:55:50;10.55;;;1.90;;
85190;SDS011;75560;0.000;0.000;2024-01-27T07:58:18;9.45;;;2.20;;
85190;SDS011;75560;0.000;0.000;2024-01-27T08:00:44;8.73;;;1.90;;
85190;SDS011;75560;0.000;0.000;2024-01-27T08:03:10;9.45;;;2.13;;
85190;SDS011;75560;0.000;0.000;2024-01-27T08:05:35;6.43;;;2.08;;
85190;SDS011;75560;0.000;0.000;2024-01-27T08:08:01;8.63;;;2.22;;
85190;SDS011;75560;0.000;0.000;2024-01-27T08:10:26;8.57;;;1.92;;
85190;SDS011;75560;0.000;0.000;2024-01-27T08:12:52;8.50;;;1.98;;
85190;SDS011;75560;0.000;0.000;2024-01-27T08:15:17;6.93;;;1.85;;
85190;SDS011;75560;0.000;0.000;2024-01-27T08:17:43;8.55;;;2.03;;
85190;SDS011;75560;0.000;0.000;2024-01-27T08:20:09;7.07;;;1.70;;
85190;SDS011;75560;0.000;0.000;2024-01-27T08:22:35;6.57;;;1.77;;
85190;SDS011;75560;0.000;0.000;2024-01-27T08:25:00;7.00;;;1.63;;
85190;SDS011;75560;0.000;0.000;2024-01-27T08:27:26;7.45;;;1.70;;
85190;SDS011;75560;0.000;0.000;2024-01-27T08:29:51;6.82;;;1.48;;
85190;SDS011;75560;0.000;0.000;2024-01-27T08:32:18;7.28;;;1.65;;
85190;SDS011;75560;0.000;0.000;2024-01-27T08:34:44;7.20;;;1.63;;
85190;SDS011;75560;0.000;0.000;2024-01-27T08:37:17;6.43;;;1.90;;
85190;SDS011;75560;0.000;0.000;2024-01-27T08:39:44;5.10;;;1.50;;
85190;SDS011;75560;0.000;0.000;2024-01-27T08:42:10;9.30;;;1.67;;
85190;SDS011;75560;0.000;0.000;2024-01-27T08:44:36;6.38;;;1.60;;
85190;SDS011;75560;0.000;0.000;2024-01-27T08:47:02;4.70;;;1.48;;
85190;SDS011;75560;0.000;0.000;2024-01-27T08:49:28;4.38;;;1.60;;
85190;SDS011;75560;0.000;0.000;2024-01-27T08:51:53;5.05;;;1.65;;
85190;SDS011;75560;0.000;0.000;2024-01-27T08:54:20;9.68;;;1.90;;
85190;SDS011;75560;0.000;0.000;2024-01-27T08:56:46;6.45;;;1.60;;
85190;SDS011;75560;0.000;0.000;2024-01-27T08:59:11;5.22;;;1.63;;
85190;SDS011;75560;0.000;0.000;2024-01-27T09:01:37;6.97;;;1.73;;
85190;SDS011;75560;0.000;0.000;2024-01-27T09:04:03;5.30;;;1.70;;
85190;SDS011;75560;0.000;0.000;2024-01-27T09:06:31;5.28;;;1.85;;
85190;SDS011;75560;0.000;0.000;2024-01-27T09:09:17;7.80;;;2.53;;
85190;SDS011;75560;0.000;0.000;2024-01-27T09:11:42;5.68;;;1.63;;
85190;SDS011;75560;0.000;0.000;2024-01-27T09:14:08;5.55;;;1.50;;
85190;SDS011;75560;0.000;0.000;2024-01-27T09:16:33;6.22;;;2.10;;
85190;SDS011;75560;0.000;0.000;2024-01-27T09:18:59;6.13;;;1.95;;
85190;SDS011;75560;0.000;0.000;2024-01-27T09:21:25;7.28;;;1.58;;
85190;SDS011;75560;0.000;0.000;2024-01-27T09:23:56;7.53;;;1.65;;
85190;SDS011;75560;0.000;0.000;2024-01-27T09:26:22;5.95;;;2.10;;
85190;SDS011;75560;0.000;0.000;2024-01-27T09:28:49;6.32;;;2.55;;
85190;SDS011;75560;0.000;0.000;2024-01-27T09:31:23;8.82;;;2.60;;
85190;SDS011;75560;0.000;0.000;2024-01-27T09:33:50;8.00;;;2.72;;
85190;SDS011;75560;0.000;0.000;2024-01-27T09:36:17;5.75;;;2.20;;
85190;SDS011;75560;0.000;0.000;2024-01-27T09:38:43;7.10;;;1.85;;
85190;SDS011;75560;0.000;0.000;2024-01-27T09:41:09;7.22;;;1.90;;
85190;SDS011;75560;0.000;0.000;2024-01-27T09:43:37;8.18;;;1.92;;
85190;SDS011;75560;0.000;0.000;2024-01-27T09:46:06;7.80;;;2.10;;
85190;SDS011;75560;0.000;0.000;2024-01-27T09:48:33;6.20;;;1.70;;
85190;SDS011;75560;0.000;0.000;2024-01-27T09:51:01;4.95;;;1.65;;
85190;SDS011;75560;0.000;0.000;2024-01-27T09:53:28;7.22;;;1.73;;
85190;SDS011;75560;0.000;0.000;2024-01-27T09:55:55;10.30;;;2.70;;
85190;SDS011;75560;0.000;0.000;2024-01-27T09:58:23;7.35;;;1.60;;
85190;SDS011;75560;0.000;0.000;2024-01-27T10:00:52;5.07;;;1.90;;
85190;SDS011;75560;0.000;0.000;2024-01-27T10:03:23;9.98;;;2.63;;
85190;SDS011;75560;0.000;0.000;2024-01-27T10:05:50;9.68;;;2.55;;
85190;SDS011;75560;0.000;0.000;2024-01-27T10:08:26;5.95;;;1.90;;
85190;SDS011;75560;0.000;0.000;2024-01-27T10:10:56;10.00;;;1.70;;
85190;SDS011;75560;0.000;0.000;2024-01-27T10:13:22;8.13;;;2.20;;
85190;SDS011;75560;0.000;0.000;2024-01-27T10:16:03;5.55;;;2.08;;
85190;SDS011;75560;0.000;0.000;2024-01-27T10:18:33;6.13;;;2.20;;
85190;SDS011;75560;0.000;0.000;2024-01-27T10:20:59;5.82;;;1.85;;
85190;SDS011;75560;0.000;0.000;2024-01-27T10:23:25;5.20;;;2.00;;
85190;SDS011;75560;0.000;0.000;2024-01-27T10:25:51;6.55;;;1.92;;
85190;SDS011;75560;0.000;0.000;2024-01-27T10:28:17;5.18;;;1.92;;
85190;SDS011;75560;0.000;0.000;2024-01-27T10:30:43;7.38;;;1.65;;
85190;SDS011;75560;0.000;0.000;2024-01-27T10:33:10;4.70;;;1.45;;
85190;SDS011;75560;0.000;0.000;2024-01-27T10:35:38;6.68;;;1.75;;
85190;SDS011;75560;0.000;0.000;2024-01-27T10:38:04;8.77;;;1.80;;
85190;SDS011;75560;0.000;0.000;2024-01-27T10:40:30;6.00;;;1.52;;
85190;SDS011;75560;0.000;0.000;2024-01-27T10:43:06;9.90;;;1.50;;
85190;SDS011;75560;0.000;0.000;2024-01-27T10:45:42;6.35;;;1.40;;
85190;SDS011;75560;0.000;0.000;2024-01-27T10:48:08;7.63;;;1.80;;
85190;SDS011;75560;0.000;0.000;2024-01-27T10:50:38;5.82;;;1.80;;
85190;SDS011;75560;0.000;0.000;2024-01-27T10:53:09;7.28;;;1.60;;
85190;SDS011;75560;0.000;0.000;2024-01-27T10:55:46;7.00;;;1.48;;
85190;SDS011;75560;0.000;0.000;2024-01-27T10:58:13;6.50;;;1.50;;
85190;SDS011;75560;0.000;0.000;2024-01-27T11:00:40;6.53;;;1.65;;
85190;SDS011;75560;0.000;0.000;2024-01-27T11:03:08;5.22;;;1.50;;
85190;SDS011;75560;0.000;0.000;2024-01-27T11:05:36;5.07;;;1.50;;
85190;SDS011;75560;0.000;0.000;2024-01-27T11:08:04;6.55;;;1.60;;
85190;SDS011;75560;0.000;0.000;2024-01-27T11:10:33;6.13;;;1.30;;
85190;SDS011;75560;0.000;0.000;2024-01-27T11:13:02;5.40;;;1.48;;
85190;SDS011;75560;0.000;0.000;2024-01-27T11:15:29;6.22;;;1.42;;
85190;SDS011;75560;0.000;0.000;2024-01-27T11:17:58;5.68;;;1.60;;
85190;SDS011;75560;0.000;0.000;2024-01-27T11:20:33;4.93;;;1.30;;
85190;SDS011;75560;0.000;0.000;2024-01-27T11:23:12;5.22;;;1.40;;
85190;SDS011;75560;0.000;0.000;2024-01-27T11:25:39;5.80;;;1.33;;
85190;SDS011;75560;0.000;0.000;2024-01-27T11:28:15;3.72;;;1.30;;
85190;SDS011;75560;0.000;0.000;2024-01-27T11:30:46;10.38;;;1.60;;
85190;SDS011;75560;0.000;0.000;2024-01-27T11:33:12;3.70;;;1.45;;
85190;SDS011;75560;0.000;0.000;2024-01-27T11:35:38;6.45;;;2.60;;
85190;SDS011;75560;0.000;0.000;2024-01-27T11:38:04;9.57;;;5.38;;
85190;SDS011;75560;0.000;0.000;2024-01-27T11:40:29;11.02;;;9.82;;
85190;SDS011;75560;0.000;0.000;2024-01-27T11:42:59;8.45;;;7.63;;
85190;SDS011;75560;0.000;0.000;2024-01-27T11:45:26;12.40;;;11.00;;
85190;SDS011;75560;0.000;0.000;2024-01-27T11:47:55;13.38;;;11.15;;
85190;SDS011;75560;0.000;0.000;2024-01-27T11:50:21;10.90;;;9.90;;
85190;SDS011;75560;0.000;0.000;2024-01-27T11:52:48;15.43;;;9.52;;
85190;SDS011;75560;0.000;0.000;2024-01-27T11:55:14;12.70;;;8.48;;
85190;SDS011;75560;0.000;0.000;2024-01-27T11:57:40;9.00;;;8.13;;
85190;SDS011;75560;0.000;0.000;2024-01-27T12:00:09;11.18;;;7.95;;
85190;SDS011;75560;0.000;0.000;2024-01-27T12:02:35;8.65;;;6.80;;
85190;SDS011;75560;0.000;0.000;2024-01-27T12:05:02;7.40;;;6.70;;
85190;SDS011;75560;0.000;0.000;2024-01-27T12:07:28;13.38;;;6.13;;
85190;SDS011;75560;0.000;0.000;2024-01-27T12:09:54;8.93;;;6.00;;
85190;SDS011;75560;0.000;0.000;2024-01-27T12:12:19;6.82;;;5.05;;
85190;SDS011;75560;0.000;0.000;2024-01-27T12:14:46;6.35;;;4.90;;
85190;SDS011;75560;0.000;0.000;2024-01-27T12:17:12;7.07;;;5.07;;
85190;SDS011;75560;0.000;0.000;2024-01-27T12:19:38;8.70;;;4.95;;
85190;SDS011;75560;0.000;0.000;2024-01-27T12:22:04;7.38;;;4.50;;
85190;SDS011;75560;0.000;0.000;2024-01-27T12:24:45;7.68;;;4.18;;
85190;SDS011;75560;0.000;0.000;2024-01-27T12:27:11;4.47;;;3.90;;
85190;SDS011;75560;0.000;0.000;2024-01-27T12:29:36;6.53;;;3.72;;
85190;SDS011;75560;0.000;0.000;2024-01-27T12:32:02;6.70;;;3.40;;
85190;SDS011;75560;0.000;0.000;2024-01-27T12:34:28;6.53;;;3.30;;
85190;SDS011;75560;0.000;0.000;2024-01-27T12:36:54;6.90;;;3.60;;
85190;SDS011;75560;0.000;0.000;2024-01-27T12:39:20;7.38;;;3.38;;
85190;SDS011;75560;0.000;0.000;2024-01-27T12:41:46;7.70;;;3.10;;
85190;SDS011;75560;0.000;0.000;2024-01-27T12:44:11;3.85;;;2.78;;
85190;SDS011;75560;0.000;0.000;2024-01-27T12:46:37;4.55;;;2.97;;
85190;SDS011;75560;0.000;0.000;2024-01-27T12:49:03;9.00;;;3.10;;
85190;SDS011;75560;0.000;0.000;2024-01-27T12:51:29;6.85;;;2.85;;
85190;SDS011;75560;0.000;0.000;2024-01-27T12:53:55;6.85;;;3.10;;
85190;SDS011;75560;0.000;0.000;2024-01-27T12:56:20;6.88;;;2.90;;
85190;SDS011;75560;0.000;0.000;2024-01-27T12:58:46;4.95;;;2.67;;
85190;SDS011;75560;0.000;0.000;2024-01-27T13:01:12;4.82;;;2.80;;
85190;SDS011;75560;0.000;0.000;2024-01-27T13:03:37;4.97;;;2.58;;
85190;SDS011;75560;0.000;0.000;2024-01-27T13:06:03;3.85;;;2.40;;
85190;SDS011;75560;0.000;0.000;2024-01-27T13:08:29;6.47;;;2.63;;
85190;SDS011;75560;0.000;0.000;2024-01-27T13:10:54;6.68;;;2.60;;
85190;SDS011;75560;0.000;0.000;2024-01-27T13:13:20;6.00;;;2.40;;
85190;SDS011;75560;0.000;0.000;2024-01-27T13:15:46;5.82;;;2.45;;
85190;SDS011;75560;0.000;0.000;2024-01-27T13:18:11;4.85;;;2.38;;
85190;SDS011;75560;0.000;0.000;2024-01-27T13:20:37;3.72;;;2.28;;
85190;SDS011;75560;0.000;0.000;2024-01-27T13:23:04;3.88;;;2.22;;
85190;SDS011;75560;0.000;0.000;2024-01-27T13:25:30;4.18;;;2.15;;
85190;SDS011;75560;0.000;0.000;2024-01-27T13:27:56;6.07;;;2.42;;
85190;SDS011;75560;0.000;0.000;2024-01-27T13:30:21;6.20;;;2.22;;
85190;SDS011;75560;0.000;0.000;2024-01-27T13:32:47;7.25;;;1.98;;
85190;SDS011;75560;0.000;0.000;2024-01-27T13:35:12;7.53;;;2.05;;
85190;SDS011;75560;0.000;0.000;2024-01-27T13:37:38;5.95;;;2.00;;
85190;SDS011;75560;0.000;0.000;2024-01-27T13:40:05;6.40;;;2.17;;
85190;SDS011;75560;0.000;0.000;2024-01-27T13:42:32;5.88;;;2.10;;
85190;SDS011;75560;0.000;0.000;2024-01-27T13:44:58;14.73;;;5.85;;
85190;SDS011;75560;0.000;0.000;2024-01-27T13:47:23;37.00;;;16.67;;
85190;SDS011;75560;0.000;0.000;2024-01-27T13:49:49;46.47;;;22.63;;
85190;SDS011;75560;0.000;0.000;2024-01-27T13:52:15;32.55;;;14.43;;
85190;SDS011;75560;0.000;0.000;2024-01-27T13:54:40;32.40;;;11.65;;
85190;SDS011;75560;0.000;0.000;2024-01-27T13:57:06;21.02;;;10.18;;
85190;SDS011;75560;0.000;0.000;2024-01-27T13:59:33;20.40;;;9.68;;
85190;SDS011;75560;0.000;0.000;2024-01-27T14:01:58;19.38;;;8.95;;
85190;SDS011;75560;0.000;0.000;2024-01-27T14:04:24;16.25;;;7.82;;
85190;SDS011;75560;0.000;0.000;2024-01-27T14:06:51;16.52;;;7.65;;
85190;SDS011;75560;0.000;0.000;2024-01-27T14:09:20;15.07;;;6.78;;
85190;SDS011;75560;0.000;0.000;2024-01-27T14:11:46;15.90;;;7.07;;
85190;SDS011;75560;0.000;0.000;2024-01-27T14:14:11;15.75;;;6.75;;
85190;SDS011;75560;0.000;0.000;2024-01-27T14:16:37;12.30;;;6.00;;
85190;SDS011;75560;0.000;0.000;2024-01-27T14:19:04;9.70;;;5.13;;
85190;SDS011;75560;0.000;0.000;2024-01-27T14:21:31;12.30;;;5.38;;
85190;SDS011;75560;0.000;0.000;2024-01-27T14:23:57;14.93;;;5.75;;
85190;SDS011;75560;0.000;0.000;2024-01-27T14:26:28;10.77;;;5.20;;
85190;SDS011;75560;0.000;0.000;2024-01-27T14:28:54;11.70;;;5.53;;
85190;SDS011;75560;0.000;0.000;2024-01-27T14:31:19;10.40;;;4.43;;
85190;SDS011;75560;0.000;0.000;2024-01-27T14:33:45;11.30;;;4.07;;
85190;SDS011;75560;0.000;0.000;2024-01-27T14:36:11;8.80;;;4.18;;
85190;SDS011;75560;0.000;0.000;2024-01-27T14:38:37;10.95;;;4.25;;
85190;SDS011;75560;0.000;0.000;2024-01-27T14:41:03;8.10;;;3.78;;
85190;SDS011;75560;0.000;0.000;2024-01-27T14:43:30;8.10;;;3.88;;
85190;SDS011;75560;0.000;0.000;2024-01-27T14:45:55;10.85;;;4.38;;
85190;SDS011;75560;0.000;0.000;2024-01-27T14:48:21;7.25;;;3.90;;
85190;SDS011;75560;0.000;0.000;2024-01-27T14:50:46;6.60;;;3.65;;
85190;SDS011;75560;0.000;0.000;2024-01-27T14:53:22;7.50;;;3.45;;
85190;SDS011;75560;0.000;0.000;2024-01-27T14:55:47;7.03;;;3.80;;